sensor_id;sensor_type;location;lat;lon;timestamp;pressure;altitude;pressure_sealevel;temperature;humidity
80693;BME280;70055;39.436;-77.514;2024-01-16T00:02:14;99959.97;;;-1.86;49.77
80693;BME280;70055;39.436;-77.514;2024-01-16T00:04:43;99960.85;;;-2.88;51.13
80693;BME280;70055;39.436;-77.514;2024-01-16T00:07:12;99965.82;;;-2.76;50.99
80693;BME280;70055;39.436;-77.514;2024-01-16T00:09:40;99965.89;;;-1.91;48.81
80693;BME280;70055;39.436;-77.514;2024-01-16T00:12:10;99963.32;;;-2.14;49.57
80693;BME280;70055;39.436;-77.514;2024-01-16T00:14:38;99955.04;;;-2.88;50.24
80693;BME280;70055;39.436;-77.514;2024-01-16T00:17:06;99953.02;;;-2.91;50.18
80693;BME280;70055;39.436;-77.514;2024-01-16T00:19:36;99948.18;;;-1.55;47.53
80693;BME280;70055;39.436;-77.514;2024-01-16T00:22:03;99944.85;;;-1.86;47.43
80693;BME280;70055;39.436;-77.514;2024-01-16T00:24:32;99949.93;;;-2.23;48.98
80693;BME280;70055;39.436;-77.514;2024-01-16T00:27:00;99945.51;;;-2.16;49.18
80693;BME280;70055;39.436;-77.514;2024-01-16T00:29:28;99942.72;;;-1.32;47.38
80693;BME280;70055;39.436;-77.514;2024-01-16T00:31:56;99950.73;;;-1.60;47.35
80693;BME280;70055;39.436;-77.514;2024-01-16T00:34:25;99955.91;;;-1.52;48.09
80693;BME280;70055;39.436;-77.514;2024-01-16T00:36:56;99944.94;;;-1.23;47.70
80693;BME280;70055;39.436;-77.514;2024-01-16T00:39:25;99937.08;;;-1.45;46.89
80693;BME280;70055;39.436;-77.514;2024-01-16T00:41:55;99935.48;;;-1.03;46.83
80693;BME280;70055;39.436;-77.514;2024-01-16T00:44:23;99938.06;;;-0.46;45.52
80693;BME280;70055;39.436;-77.514;2024-01-16T00:46:51;99936.83;;;-1.08;46.88
80693;BME280;70055;39.436;-77.514;2024-01-16T00:49:22;99939.71;;;-1.95;48.25
80693;BME280;70055;39.436;-77.514;2024-01-16T00:51:57;99937.17;;;-2.34;49.28
80693;BME280;70055;39.436;-77.514;2024-01-16T00:54:24;99934.59;;;-2.56;50.55
80693;BME280;70055;39.436;-77.514;2024-01-16T00:56:53;99929.02;;;-1.77;48.47
80693;BME280;70055;39.436;-77.514;2024-01-16T00:59:23;99918.03;;;-0.78;47.02
80693;BME280;70055;39.436;-77.514;2024-01-16T01:01:52;99904.73;;;-1.46;47.58
80693;BME280;70055;39.436;-77.514;2024-01-16T01:04:20;99910.31;;;-3.13;50.45
80693;BME280;70055;39.436;-77.514;2024-01-16T01:06:50;99900.88;;;-2.43;50.45
80693;BME280;70055;39.436;-77.514;2024-01-16T01:09:18;99895.24;;;-2.84;51.12
80693;BME280;70055;39.436;-77.514;2024-01-16T01:11:46;99904.17;;;-1.42;48.34
80693;BME280;70055;39.436;-77.514;2024-01-16T01:14:16;99906.78;;;-2.03;48.97
80693;BME280;70055;39.436;-77.514;2024-01-16T01:16:44;99907.03;;;-0.35;45.67
80693;BME280;70055;39.436;-77.514;2024-01-16T01:19:13;99911.30;;;-0.90;46.64
80693;BME280;70055;39.436;-77.514;2024-01-16T01:21:42;99899.20;;;-0.83;46.23
80693;BME280;70055;39.436;-77.514;2024-01-16T01:24:11;99890.52;;;-0.43;45.73
80693;BME280;70055;39.436;-77.514;2024-01-16T01:26:43;99884.50;;;-1.55;47.31
80693;BME280;70055;39.436;-77.514;2024-01-16T01:29:19;99881.86;;;-1.43;46.80
80693;BME280;70055;39.436;-77.514;2024-01-16T01:31:49;99891.77;;;-1.40;47.28
80693;BME280;70055;39.436;-77.514;2024-01-16T01:34:20;99892.15;;;-3.45;50.33
80693;BME280;70055;39.436;-77.514;2024-01-16T01:36:50;99886.76;;;-3.79;52.81
80693;BME280;70055;39.436;-77.514;2024-01-16T01:39:18;99894.70;;;-3.12;51.52
80693;BME280;70055;39.436;-77.514;2024-01-16T01:41:48;99913.82;;;-3.35;53.18
80693;BME280;70055;39.436;-77.514;2024-01-16T01:44:18;99891.95;;;-2.65;50.54
80693;BME280;70055;39.436;-77.514;2024-01-16T01:46:48;99878.95;;;-2.83;51.10
80693;BME280;70055;39.436;-77.514;2024-01-16T01:49:18;99892.65;;;-1.96;49.52
80693;BME280;70055;39.436;-77.514;2024-01-16T01:51:50;99887.23;;;-3.47;52.22
80693;BME280;70055;39.436;-77.514;2024-01-16T01:54:20;99886.68;;;-2.49;51.28
80693;BME280;70055;39.436;-77.514;2024-01-16T01:56:49;99897.55;;;-2.88;51.93
80693;BME280;70055;39.436;-77.514;2024-01-16T01:59:24;99913.49;;;-3.49;52.72
80693;BME280;70055;39.436;-77.514;2024-01-16T02:01:56;99913.71;;;-3.45;52.71
80693;BME280;70055;39.436;-77.514;2024-01-16T02:04:27;99894.69;;;-3.01;51.23
80693;BME280;70055;39.436;-77.514;2024-01-16T02:06:56;99899.15;;;-3.34;52.72
80693;BME280;70055;39.436;-77.514;2024-01-16T02:09:29;99891.62;;;-3.81;53.61
80693;BME280;70055;39.436;-77.514;2024-01-16T02:12:00;99908.28;;;-3.00;52.40
80693;BME280;70055;39.436;-77.514;2024-01-16T02:14:29;99908.13;;;-3.11;52.11
80693;BME280;70055;39.436;-77.514;2024-01-16T02:16:57;99909.61;;;-3.07;52.79
80693;BME280;70055;39.436;-77.514;2024-01-16T02:19:27;99894.00;;;-4.33;54.82
80693;BME280;70055;39.436;-77.514;2024-01-16T02:22:00;99877.86;;;-3.83;54.85
80693;BME280;70055;39.436;-77.514;2024-01-16T02:24:35;99886.97;;;-3.50;53.69
80693;BME280;70055;39.436;-77.514;2024-01-16T02:27:03;99874.37;;;-3.38;54.15
80693;BME280;70055;39.436;-77.514;2024-01-16T02:29:32;99875.70;;;-3.65;54.68
80693;BME280;70055;39.436;-77.514;2024-01-16T02:32:00;99879.02;;;-3.81;54.76
80693;BME280;70055;39.436;-77.514;2024-01-16T02:34:28;99876.94;;;-3.25;53.61
80693;BME280;70055;39.436;-77.514;2024-01-16T02:36:55;99868.68;;;-3.64;53.69
80693;BME280;70055;39.436;-77.514;2024-01-16T02:39:26;99880.78;;;-4.75;56.63
80693;BME280;70055;39.436;-77.514;2024-01-16T02:41:55;99870.69;;;-3.49;54.38
80693;BME280;70055;39.436;-77.514;2024-01-16T02:44:27;99855.38;;;-3.85;54.61
80693;BME280;70055;39.436;-77.514;2024-01-16T02:46:56;99862.80;;;-3.92;54.99
80693;BME280;70055;39.436;-77.514;2024-01-16T02:49:28;99861.74;;;-4.22;56.02
80693;BME280;70055;39.436;-77.514;2024-01-16T02:51:57;99857.28;;;-4.63;57.53
80693;BME280;70055;39.436;-77.514;2024-01-16T02:54:25;99845.34;;;-4.26;56.09
80693;BME280;70055;39.436;-77.514;2024-01-16T02:56:55;99835.81;;;-5.05;57.98
80693;BME280;70055;39.436;-77.514;2024-01-16T02:59:23;99824.29;;;-4.88;58.36
80693;BME280;70055;39.436;-77.514;2024-01-16T03:01:52;99828.52;;;-5.63;59.35
80693;BME280;70055;39.436;-77.514;2024-01-16T03:04:21;99817.63;;;-6.03;61.84
80693;BME280;70055;39.436;-77.514;2024-01-16T03:06:49;99815.78;;;-5.73;62.14
80693;BME280;70055;39.436;-77.514;2024-01-16T03:09:18;99804.41;;;-5.61;61.09
80693;BME280;70055;39.436;-77.514;2024-01-16T03:11:46;99803.20;;;-6.32;63.21
80693;BME280;70055;39.436;-77.514;2024-01-16T03:14:14;99796.92;;;-5.32;61.14
80693;BME280;70055;39.436;-77.514;2024-01-16T03:16:42;99800.86;;;-5.63;61.02
80693;BME280;70055;39.436;-77.514;2024-01-16T03:19:10;99807.64;;;-5.92;61.38
80693;BME280;70055;39.436;-77.514;2024-01-16T03:21:42;99790.44;;;-6.02;61.68
80693;BME280;70055;39.436;-77.514;2024-01-16T03:24:10;99771.93;;;-6.36;63.15
80693;BME280;70055;39.436;-77.514;2024-01-16T03:26:40;99771.53;;;-5.88;62.10
80693;BME280;70055;39.436;-77.514;2024-01-16T03:29:08;99766.04;;;-5.25;60.39
80693;BME280;70055;39.436;-77.514;2024-01-16T03:31:36;99757.43;;;-5.85;60.14
80693;BME280;70055;39.436;-77.514;2024-01-16T03:34:05;99756.61;;;-6.15;62.06
80693;BME280;70055;39.436;-77.514;2024-01-16T03:36:34;99751.19;;;-5.32;60.50
80693;BME280;70055;39.436;-77.514;2024-01-16T03:39:02;99742.10;;;-6.07;62.13
80693;BME280;70055;39.436;-77.514;2024-01-16T03:41:29;99735.03;;;-6.38;63.34
80693;BME280;70055;39.436;-77.514;2024-01-16T03:44:03;99734.71;;;-6.30;63.06
80693;BME280;70055;39.436;-77.514;2024-01-16T03:46:31;99717.51;;;-6.35;64.16
80693;BME280;70055;39.436;-77.514;2024-01-16T03:48:59;99706.54;;;-6.87;64.37
80693;BME280;70055;39.436;-77.514;2024-01-16T03:51:29;99698.94;;;-5.47;61.20
80693;BME280;70055;39.436;-77.514;2024-01-16T03:53:57;99707.04;;;-6.07;61.91
80693;BME280;70055;39.436;-77.514;2024-01-16T03:56:29;99712.60;;;-5.76;60.61
80693;BME280;70055;39.436;-77.514;2024-01-16T03:58:58;99713.39;;;-6.05;62.41
80693;BME280;70055;39.436;-77.514;2024-01-16T04:01:31;99710.78;;;-7.01;64.93
80693;BME280;70055;39.436;-77.514;2024-01-16T04:04:00;99705.37;;;-6.80;64.84
80693;BME280;70055;39.436;-77.514;2024-01-16T04:06:28;99712.00;;;-6.92;65.23
80693;BME280;70055;39.436;-77.514;2024-01-16T04:08:57;99717.57;;;-6.55;64.70
80693;BME280;70055;39.436;-77.514;2024-01-16T04:11:24;99707.29;;;-5.89;62.90
80693;BME280;70055;39.436;-77.514;2024-01-16T04:13:53;99698.53;;;-6.69;64.23
80693;BME280;70055;39.436;-77.514;2024-01-16T04:16:21;99693.47;;;-6.35;64.00
80693;BME280;70055;39.436;-77.514;2024-01-16T04:18:49;99694.76;;;-6.58;64.76
80693;BME280;70055;39.436;-77.514;2024-01-16T04:21:19;99680.68;;;-6.59;64.72
80693;BME280;70055;39.436;-77.514;2024-01-16T04:23:48;99674.16;;;-6.91;65.47
80693;BME280;70055;39.436;-77.514;2024-01-16T04:26:15;99678.67;;;-5.85;63.71
80693;BME280;70055;39.436;-77.514;2024-01-16T04:28:45;99675.49;;;-5.93;63.30
80693;BME280;70055;39.436;-77.514;2024-01-16T04:31:14;99675.02;;;-5.74;61.52
80693;BME280;70055;39.436;-77.514;2024-01-16T04:33:45;99677.28;;;-6.53;63.90
80693;BME280;70055;39.436;-77.514;2024-01-16T04:36:13;99671.03;;;-6.85;65.41
80693;BME280;70055;39.436;-77.514;2024-01-16T04:38:41;99671.31;;;-6.99;66.07
80693;BME280;70055;39.436;-77.514;2024-01-16T04:41:09;99670.33;;;-5.89;63.93
80693;BME280;70055;39.436;-77.514;2024-01-16T04:43:37;99669.53;;;-5.87;63.06
80693;BME280;70055;39.436;-77.514;2024-01-16T04:46:05;99675.21;;;-5.93;63.36
80693;BME280;70055;39.436;-77.514;2024-01-16T04:48:33;99682.08;;;-6.58;64.46
80693;BME280;70055;39.436;-77.514;2024-01-16T04:51:00;99674.74;;;-5.77;62.30
80693;BME280;70055;39.436;-77.514;2024-01-16T04:53:28;99680.83;;;-5.44;61.45
80693;BME280;70055;39.436;-77.514;2024-01-16T04:55:58;99684.47;;;-5.64;62.49
80693;BME280;70055;39.436;-77.514;2024-01-16T04:58:29;99683.87;;;-6.00;61.68
80693;BME280;70055;39.436;-77.514;2024-01-16T05:00:58;99677.90;;;-4.85;59.74
80693;BME280;70055;39.436;-77.514;2024-01-16T05:03:26;99673.25;;;-5.12;59.66
80693;BME280;70055;39.436;-77.514;2024-01-16T05:05:55;99654.42;;;-4.42;57.95
80693;BME280;70055;39.436;-77.514;2024-01-16T05:08:23;99649.06;;;-4.90;58.73
80693;BME280;70055;39.436;-77.514;2024-01-16T05:10:51;99645.81;;;-5.17;58.90
80693;BME280;70055;39.436;-77.514;2024-01-16T05:13:20;99637.74;;;-5.20;60.55
80693;BME280;70055;39.436;-77.514;2024-01-16T05:15:50;99633.99;;;-5.57;61.88
80693;BME280;70055;39.436;-77.514;2024-01-16T05:18:20;99641.31;;;-5.81;60.90
80693;BME280;70055;39.436;-77.514;2024-01-16T05:20:49;99634.39;;;-4.34;59.20
80693;BME280;70055;39.436;-77.514;2024-01-16T05:23:17;99628.69;;;-5.75;61.65
80693;BME280;70055;39.436;-77.514;2024-01-16T05:25:45;99626.36;;;-5.39;60.95
80693;BME280;70055;39.436;-77.514;2024-01-16T05:28:13;99614.32;;;-4.69;60.27
80693;BME280;70055;39.436;-77.514;2024-01-16T05:30:42;99592.30;;;-5.35;60.78
80693;BME280;70055;39.436;-77.514;2024-01-16T05:33:10;99593.17;;;-5.80;62.22
80693;BME280;70055;39.436;-77.514;2024-01-16T05:35:38;99588.52;;;-5.41;61.04
80693;BME280;70055;39.436;-77.514;2024-01-16T05:38:06;99581.45;;;-4.65;59.95
80693;BME280;70055;39.436;-77.514;2024-01-16T05:40:35;99579.01;;;-4.99;59.64
80693;BME280;70055;39.436;-77.514;2024-01-16T05:43:05;99585.32;;;-5.83;63.07
80693;BME280;70055;39.436;-77.514;2024-01-16T05:45:34;99578.47;;;-5.50;61.85
80693;BME280;70055;39.436;-77.514;2024-01-16T05:48:01;99577.54;;;-4.60;59.83
80693;BME280;70055;39.436;-77.514;2024-01-16T05:50:29;99572.11;;;-5.04;60.10
80693;BME280;70055;39.436;-77.514;2024-01-16T05:52:57;99570.15;;;-5.72;62.42
80693;BME280;70055;39.436;-77.514;2024-01-16T05:55:25;99558.63;;;-5.39;61.66
80693;BME280;70055;39.436;-77.514;2024-01-16T05:57:52;99550.96;;;-5.72;61.37
80693;BME280;70055;39.436;-77.514;2024-01-16T06:00:21;99548.77;;;-5.77;61.35
80693;BME280;70055;39.436;-77.514;2024-01-16T06:02:49;99540.83;;;-5.71;61.53
80693;BME280;70055;39.436;-77.514;2024-01-16T06:05:18;99539.94;;;-6.41;64.17
80693;BME280;70055;39.436;-77.514;2024-01-16T06:07:46;99542.96;;;-6.22;64.32
80693;BME280;70055;39.436;-77.514;2024-01-16T06:10:14;99530.03;;;-5.42;61.51
80693;BME280;70055;39.436;-77.514;2024-01-16T06:12:42;99536.70;;;-4.83;60.06
80693;BME280;70055;39.436;-77.514;2024-01-16T06:15:10;99536.54;;;-4.84;58.24
80693;BME280;70055;39.436;-77.514;2024-01-16T06:17:40;99537.15;;;-5.50;59.44
80693;BME280;70055;39.436;-77.514;2024-01-16T06:20:09;99541.66;;;-6.02;62.09
80693;BME280;70055;39.436;-77.514;2024-01-16T06:22:37;99536.37;;;-5.53;61.46
80693;BME280;70055;39.436;-77.514;2024-01-16T06:25:07;99531.50;;;-5.72;62.00
80693;BME280;70055;39.436;-77.514;2024-01-16T06:27:35;99520.93;;;-6.30;62.96
80693;BME280;70055;39.436;-77.514;2024-01-16T06:30:05;99514.50;;;-5.71;62.09
80693;BME280;70055;39.436;-77.514;2024-01-16T06:32:32;99516.28;;;-6.08;62.88
80693;BME280;70055;39.436;-77.514;2024-01-16T06:35:03;99516.61;;;-6.85;64.15
80693;BME280;70055;39.436;-77.514;2024-01-16T06:37:32;99510.14;;;-5.66;63.18
80693;BME280;70055;39.436;-77.514;2024-01-16T06:40:00;99497.06;;;-5.76;62.90
80693;BME280;70055;39.436;-77.514;2024-01-16T06:42:28;99493.18;;;-5.25;61.02
80693;BME280;70055;39.436;-77.514;2024-01-16T06:44:56;99496.80;;;-5.66;60.85
80693;BME280;70055;39.436;-77.514;2024-01-16T06:47:24;99494.00;;;-5.51;60.69
80693;BME280;70055;39.436;-77.514;2024-01-16T06:49:52;99487.98;;;-5.14;61.86
80693;BME280;70055;39.436;-77.514;2024-01-16T06:52:20;99480.71;;;-5.15;60.95
80693;BME280;70055;39.436;-77.514;2024-01-16T06:54:47;99472.30;;;-5.39;60.99
80693;BME280;70055;39.436;-77.514;2024-01-16T06:57:15;99472.38;;;-6.10;62.86
80693;BME280;70055;39.436;-77.514;2024-01-16T06:59:43;99475.18;;;-5.58;61.61
80693;BME280;70055;39.436;-77.514;2024-01-16T07:02:12;99476.83;;;-6.52;63.91
80693;BME280;70055;39.436;-77.514;2024-01-16T07:04:41;99479.51;;;-6.45;62.98
80693;BME280;70055;39.436;-77.514;2024-01-16T07:07:09;99480.41;;;-6.48;63.05
80693;BME280;70055;39.436;-77.514;2024-01-16T07:09:37;99470.76;;;-5.52;61.53
80693;BME280;70055;39.436;-77.514;2024-01-16T07:12:09;99455.22;;;-5.55;61.51
80693;BME280;70055;39.436;-77.514;2024-01-16T07:14:37;99439.06;;;-6.87;65.22
80693;BME280;70055;39.436;-77.514;2024-01-16T07:17:05;99428.47;;;-6.68;65.12
80693;BME280;70055;39.436;-77.514;2024-01-16T07:19:34;99423.48;;;-6.57;64.82
80693;BME280;70055;39.436;-77.514;2024-01-16T07:22:01;99426.50;;;-7.02;66.98
80693;BME280;70055;39.436;-77.514;2024-01-16T07:24:29;99422.91;;;-6.68;65.03
80693;BME280;70055;39.436;-77.514;2024-01-16T07:26:58;99417.56;;;-6.50;65.34
80693;BME280;70055;39.436;-77.514;2024-01-16T07:29:26;99413.24;;;-6.50;65.92
80693;BME280;70055;39.436;-77.514;2024-01-16T07:31:54;99414.69;;;-6.49;64.61
80693;BME280;70055;39.436;-77.514;2024-01-16T07:34:22;99413.78;;;-6.54;65.13
80693;BME280;70055;39.436;-77.514;2024-01-16T07:36:50;99419.18;;;-6.81;67.16
80693;BME280;70055;39.436;-77.514;2024-01-16T07:39:18;99417.64;;;-6.25;65.23
80693;BME280;70055;39.436;-77.514;2024-01-16T07:41:45;99414.62;;;-6.89;66.00
80693;BME280;70055;39.436;-77.514;2024-01-16T07:44:13;99404.49;;;-7.05;66.55
80693;BME280;70055;39.436;-77.514;2024-01-16T07:46:41;99400.80;;;-7.12;66.58
80693;BME280;70055;39.436;-77.514;2024-01-16T07:49:09;99393.07;;;-6.65;66.29
80693;BME280;70055;39.436;-77.514;2024-01-16T07:51:36;99393.76;;;-5.53;62.95
80693;BME280;70055;39.436;-77.514;2024-01-16T07:54:07;99390.79;;;-6.34;64.69
80693;BME280;70055;39.436;-77.514;2024-01-16T07:56:35;99391.75;;;-6.45;64.52
80693;BME280;70055;39.436;-77.514;2024-01-16T07:59:04;99396.70;;;-6.31;64.28
80693;BME280;70055;39.436;-77.514;2024-01-16T08:01:32;99392.88;;;-5.52;61.88
80693;BME280;70055;39.436;-77.514;2024-01-16T08:04:00;99384.53;;;-5.16;60.58
80693;BME280;70055;39.436;-77.514;2024-01-16T08:06:27;99388.82;;;-5.21;60.31
80693;BME280;70055;39.436;-77.514;2024-01-16T08:08:56;99393.09;;;-5.45;59.83
80693;BME280;70055;39.436;-77.514;2024-01-16T08:11:26;99390.60;;;-4.25;55.98
80693;BME280;70055;39.436;-77.514;2024-01-16T08:13:53;99388.69;;;-3.50;54.25
80693;BME280;70055;39.436;-77.514;2024-01-16T08:16:22;99378.87;;;-5.64;58.57
80693;BME280;70055;39.436;-77.514;2024-01-16T08:18:52;99371.48;;;-3.88;55.58
80693;BME280;70055;39.436;-77.514;2024-01-16T08:21:20;99357.28;;;-3.66;54.34
80693;BME280;70055;39.436;-77.514;2024-01-16T08:23:48;99344.62;;;-3.94;55.17
80693;BME280;70055;39.436;-77.514;2024-01-16T08:26:16;99341.83;;;-4.20;55.31
80693;BME280;70055;39.436;-77.514;2024-01-16T08:28:44;99336.31;;;-5.81;59.02
80693;BME280;70055;39.436;-77.514;2024-01-16T08:31:12;99336.08;;;-5.01;58.30
80693;BME280;70055;39.436;-77.514;2024-01-16T08:33:42;99326.05;;;-3.29;54.19
80693;BME280;70055;39.436;-77.514;2024-01-16T08:36:10;99322.12;;;-2.49;52.00
80693;BME280;70055;39.436;-77.514;2024-01-16T08:38:38;99317.32;;;-3.06;53.09
80693;BME280;70055;39.436;-77.514;2024-01-16T08:41:06;99317.32;;;-1.48;49.73
80693;BME280;70055;39.436;-77.514;2024-01-16T08:43:35;99311.97;;;-1.51;48.89
80693;BME280;70055;39.436;-77.514;2024-01-16T08:46:03;99304.71;;;-1.61;48.49
80693;BME280;70055;39.436;-77.514;2024-01-16T08:48:30;99305.79;;;-2.85;50.48
80693;BME280;70055;39.436;-77.514;2024-01-16T08:51:03;99298.24;;;-2.75;51.45
80693;BME280;70055;39.436;-77.514;2024-01-16T08:53:31;99304.91;;;-5.05;57.38
80693;BME280;70055;39.436;-77.514;2024-01-16T08:55:59;99301.76;;;-5.47;60.04
80693;BME280;70055;39.436;-77.514;2024-01-16T08:58:26;99302.69;;;-5.51;59.53
80693;BME280;70055;39.436;-77.514;2024-01-16T09:00:55;99293.40;;;-5.88;60.74
80693;BME280;70055;39.436;-77.514;2024-01-16T09:03:22;99288.22;;;-5.45;59.73
80693;BME280;70055;39.436;-77.514;2024-01-16T09:05:50;99280.61;;;-6.24;61.31
80693;BME280;70055;39.436;-77.514;2024-01-16T09:08:18;99270.61;;;-5.83;61.33
80693;BME280;70055;39.436;-77.514;2024-01-16T09:10:46;99265.18;;;-5.95;61.69
80693;BME280;70055;39.436;-77.514;2024-01-16T09:13:14;99260.65;;;-5.21;59.05
80693;BME280;70055;39.436;-77.514;2024-01-16T09:15:42;99249.29;;;-4.26;58.11
80693;BME280;70055;39.436;-77.514;2024-01-16T09:18:11;99247.41;;;-4.82;58.19
80693;BME280;70055;39.436;-77.514;2024-01-16T09:20:41;99234.81;;;-3.80;55.24
80693;BME280;70055;39.436;-77.514;2024-01-16T09:23:10;99243.75;;;-4.46;56.25
80693;BME280;70055;39.436;-77.514;2024-01-16T09:25:38;99230.14;;;-4.12;55.51
80693;BME280;70055;39.436;-77.514;2024-01-16T09:28:06;99226.71;;;-3.92;55.52
80693;BME280;70055;39.436;-77.514;2024-01-16T09:30:34;99223.25;;;-3.18;53.85
80693;BME280;70055;39.436;-77.514;2024-01-16T09:33:02;99224.52;;;-3.97;54.59
80693;BME280;70055;39.436;-77.514;2024-01-16T09:35:29;99212.01;;;-4.28;54.59
80693;BME280;70055;39.436;-77.514;2024-01-16T09:37:57;99196.33;;;-4.05;54.09
80693;BME280;70055;39.436;-77.514;2024-01-16T09:40:25;99202.49;;;-5.05;57.78
80693;BME280;70055;39.436;-77.514;2024-01-16T09:42:53;99190.06;;;-4.44;56.13
80693;BME280;70055;39.436;-77.514;2024-01-16T09:45:21;99189.16;;;-4.90;57.33
80693;BME280;70055;39.436;-77.514;2024-01-16T09:47:52;99172.71;;;-3.69;54.80
80693;BME280;70055;39.436;-77.514;2024-01-16T09:50:21;99182.55;;;-6.89;64.34
80693;BME280;70055;39.436;-77.514;2024-01-16T09:52:50;99185.36;;;-7.36;66.81
80693;BME280;70055;39.436;-77.514;2024-01-16T09:55:19;99174.28;;;-6.30;64.73
80693;BME280;70055;39.436;-77.514;2024-01-16T09:57:53;99183.24;;;-6.22;64.08
80693;BME280;70055;39.436;-77.514;2024-01-16T10:00:21;99183.51;;;-4.89;59.59
80693;BME280;70055;39.436;-77.514;2024-01-16T10:02:51;99174.15;;;-5.12;59.96
80693;BME280;70055;39.436;-77.514;2024-01-16T10:05:21;99164.48;;;-5.99;61.21
80693;BME280;70055;39.436;-77.514;2024-01-16T10:07:52;99169.21;;;-5.60;61.02
80693;BME280;70055;39.436;-77.514;2024-01-16T10:10:19;99173.80;;;-5.56;60.56
80693;BME280;70055;39.436;-77.514;2024-01-16T10:12:50;99186.39;;;-6.08;62.33
80693;BME280;70055;39.436;-77.514;2024-01-16T10:15:20;99189.54;;;-5.62;60.47
80693;BME280;70055;39.436;-77.514;2024-01-16T10:17:49;99191.07;;;-5.38;60.49
80693;BME280;70055;39.436;-77.514;2024-01-16T10:20:32;99179.39;;;-6.19;61.95
80693;BME280;70055;39.436;-77.514;2024-01-16T10:23:00;99165.98;;;-5.24;60.08
80693;BME280;70055;39.436;-77.514;2024-01-16T10:25:27;99147.74;;;-5.64;58.92
80693;BME280;70055;39.436;-77.514;2024-01-16T10:28:04;99128.54;;;-4.97;58.00
80693;BME280;70055;39.436;-77.514;2024-01-16T10:30:34;99125.67;;;-2.82;53.77
80693;BME280;70055;39.436;-77.514;2024-01-16T10:33:13;99128.58;;;-5.27;58.17
80693;BME280;70055;39.436;-77.514;2024-01-16T10:35:42;99111.91;;;-6.62;64.09
80693;BME280;70055;39.436;-77.514;2024-01-16T10:38:09;99106.41;;;-7.21;67.41
80693;BME280;70055;39.436;-77.514;2024-01-16T10:40:37;99098.47;;;-7.56;69.67
80693;BME280;70055;39.436;-77.514;2024-01-16T10:43:06;99100.34;;;-7.34;69.43
80693;BME280;70055;39.436;-77.514;2024-01-16T10:45:35;99105.85;;;-7.93;71.05
80693;BME280;70055;39.436;-77.514;2024-01-16T10:48:03;99111.30;;;-7.32;68.47
80693;BME280;70055;39.436;-77.514;2024-01-16T10:50:32;99114.70;;;-6.88;67.21
80693;BME280;70055;39.436;-77.514;2024-01-16T10:53:03;99109.14;;;-6.92;67.56
80693;BME280;70055;39.436;-77.514;2024-01-16T10:55:33;99105.43;;;-6.93;67.26
80693;BME280;70055;39.436;-77.514;2024-01-16T10:58:05;99096.92;;;-6.86;67.11
80693;BME280;70055;39.436;-77.514;2024-01-16T11:00:40;99102.94;;;-6.41;64.82
80693;BME280;70055;39.436;-77.514;2024-01-16T11:03:19;99107.25;;;-6.13;63.17
80693;BME280;70055;39.436;-77.514;2024-01-16T11:05:49;99119.42;;;-7.71;66.95
80693;BME280;70055;39.436;-77.514;2024-01-16T11:08:18;99120.41;;;-7.14;66.21
80693;BME280;70055;39.436;-77.514;2024-01-16T11:10:47;99113.76;;;-4.53;60.18
80693;BME280;70055;39.436;-77.514;2024-01-16T11:13:16;99119.35;;;-4.82;57.25
80693;BME280;70055;39.436;-77.514;2024-01-16T11:15:47;99120.63;;;-4.57;57.95
80693;BME280;70055;39.436;-77.514;2024-01-16T11:18:17;99103.44;;;-4.67;57.64
80693;BME280;70055;39.436;-77.514;2024-01-16T11:20:45;99102.54;;;-5.90;61.64
80693;BME280;70055;39.436;-77.514;2024-01-16T11:23:14;99101.49;;;-6.63;62.64
80693;BME280;70055;39.436;-77.514;2024-01-16T11:25:42;99104.65;;;-7.75;66.56
80693;BME280;70055;39.436;-77.514;2024-01-16T11:28:11;99110.29;;;-5.65;63.06
80693;BME280;70055;39.436;-77.514;2024-01-16T11:30:40;99108.18;;;-5.75;62.09
80693;BME280;70055;39.436;-77.514;2024-01-16T11:33:42;99108.86;;;-5.83;60.85
80693;BME280;70055;39.436;-77.514;2024-01-16T11:36:45;99102.37;;;-4.72;58.62
80693;BME280;70055;39.436;-77.514;2024-01-16T11:39:18;99107.74;;;-5.61;59.21
80693;BME280;70055;39.436;-77.514;2024-01-16T11:41:51;99103.97;;;-5.88;60.92
80693;BME280;70055;39.436;-77.514;2024-01-16T11:44:52;99098.32;;;-6.30;62.62
80693;BME280;70055;39.436;-77.514;2024-01-16T11:47:24;99097.22;;;-7.03;66.33
80693;BME280;70055;39.436;-77.514;2024-01-16T11:50:07;99100.14;;;-6.70;65.85
80693;BME280;70055;39.436;-77.514;2024-01-16T11:52:40;99097.80;;;-6.16;64.06
80693;BME280;70055;39.436;-77.514;2024-01-16T11:55:25;99097.30;;;-5.08;60.19
80693;BME280;70055;39.436;-77.514;2024-01-16T11:58:03;99086.82;;;-4.13;57.26
80693;BME280;70055;39.436;-77.514;2024-01-16T12:00:41;99079.91;;;-2.88;54.05
80693;BME280;70055;39.436;-77.514;2024-01-16T12:03:11;99066.75;;;-2.11;52.35
80693;BME280;70055;39.436;-77.514;2024-01-16T12:05:42;99073.07;;;-1.09;49.73
80693;BME280;70055;39.436;-77.514;2024-01-16T12:08:10;99077.37;;;-1.62;49.89
80693;BME280;70055;39.436;-77.514;2024-01-16T12:10:46;99077.67;;;-0.83;48.73
80693;BME280;70055;39.436;-77.514;2024-01-16T12:13:15;99078.28;;;-1.04;48.70
80693;BME280;70055;39.436;-77.514;2024-01-16T12:15:44;99072.82;;;-0.93;48.76
80693;BME280;70055;39.436;-77.514;2024-01-16T12:18:18;99066.08;;;-2.00;49.65
80693;BME280;70055;39.436;-77.514;2024-01-16T12:20:46;99049.47;;;-1.38;49.48
80693;BME280;70055;39.436;-77.514;2024-01-16T12:23:15;99042.23;;;-0.57;48.17
80693;BME280;70055;39.436;-77.514;2024-01-16T12:25:43;99044.30;;;-1.50;48.89
80693;BME280;70055;39.436;-77.514;2024-01-16T12:28:13;99037.94;;;-1.08;48.64
80693;BME280;70055;39.436;-77.514;2024-01-16T12:30:49;99028.99;;;-3.02;51.60
80693;BME280;70055;39.436;-77.514;2024-01-16T12:33:22;99023.03;;;-3.62;55.00
80693;BME280;70055;39.436;-77.514;2024-01-16T12:36:03;99015.38;;;-4.39;57.54
80693;BME280;70055;39.436;-77.514;2024-01-16T12:38:32;99005.70;;;-4.02;55.99
80693;BME280;70055;39.436;-77.514;2024-01-16T12:41:01;99006.02;;;-3.65;55.52
80693;BME280;70055;39.436;-77.514;2024-01-16T12:43:33;99007.82;;;-2.35;52.51
80693;BME280;70055;39.436;-77.514;2024-01-16T12:46:03;99011.59;;;-1.93;51.37
80693;BME280;70055;39.436;-77.514;2024-01-16T12:48:31;99007.97;;;-1.54;50.86
80693;BME280;70055;39.436;-77.514;2024-01-16T12:51:01;98997.07;;;-1.03;49.17
80693;BME280;70055;39.436;-77.514;2024-01-16T12:53:31;98979.85;;;-1.52;48.77